sensor_id;sensor_type;location;lat;lon;timestamp;P1;durP1;ratioP1;P2;durP2;ratioP2
80163;SDS011;70071;55.130;61.268;2023-05-24T00:01:47;23.58;;;14.73;;
80163;SDS011;70071;55.130;61.268;2023-05-24T00:05:22;25.33;;;15.82;;
80163;SDS011;70071;55.130;61.268;2023-05-24T00:08:47;21.38;;;15.07;;
80163;SDS011;70071;55.130;61.268;2023-05-24T00:12:13;20.60;;;13.70;;
80163;SDS011;70071;55.130;61.268;2023-05-24T00:15:59;18.00;;;13.00;;
80163;SDS011;70071;55.130;61.268;2023-05-24T00:19:25;19.58;;;14.30;;
80163;SDS011;70071;55.130;61.268;2023-05-24T00:22:31;16.75;;;12.30;;
80163;SDS011;70071;55.130;61.268;2023-05-24T00:25:57;20.15;;;13.10;;
80163;SDS011;70071;55.130;61.268;2023-05-24T00:29:24;16.45;;;12.65;;
80163;SDS011;70071;55.130;61.268;2023-05-24T00:32:50;17.80;;;12.52;;
80163;SDS011;70071;55.130;61.268;2023-05-24T00:36:15;18.98;;;12.30;;
80163;SDS011;70071;55.130;61.268;2023-05-24T00:40:00;19.02;;;13.27;;
80163;SDS011;70071;55.130;61.268;2023-05-24T00:43:30;17.90;;;13.77;;
80163;SDS011;70071;55.130;61.268;2023-05-24T00:47:15;19.85;;;13.75;;
80163;SDS011;70071;55.130;61.268;2023-05-24T00:50:40;21.00;;;13.82;;
80163;SDS011;70071;55.130;61.268;2023-05-24T00:54:07;20.00;;;13.07;;
80163;SDS011;70071;55.130;61.268;2023-05-24T00:57:36;15.35;;;12.00;;
80163;SDS011;70071;55.130;61.268;2023-05-24T01:01:20;20.00;;;13.25;;
80163;SDS011;70071;55.130;61.268;2023-05-24T01:04:39;16.15;;;11.93;;
80163;SDS011;70071;55.130;61.268;2023-05-24T01:08:23;18.13;;;12.50;;
80163;SDS011;70071;55.130;61.268;2023-05-24T01:15:36;16.30;;;12.63;;
80163;SDS011;70071;55.130;61.268;2023-05-24T01:18:30;18.10;;;12.15;;
80163;SDS011;70071;55.130;61.268;2023-05-24T01:22:07;16.50;;;12.07;;
80163;SDS011;70071;55.130;61.268;2023-05-24T01:28:34;17.30;;;12.68;;
80163;SDS011;70071;55.130;61.268;2023-05-24T01:31:04;18.45;;;13.25;;
80163;SDS011;70071;55.130;61.268;2023-05-24T01:33:31;18.40;;;12.77;;
80163;SDS011;70071;55.130;61.268;2023-05-24T01:36:57;16.95;;;12.73;;
80163;SDS011;70071;55.130;61.268;2023-05-24T01:40:05;19.10;;;14.20;;
80163;SDS011;70071;55.130;61.268;2023-05-24T01:49:15;18.50;;;13.23;;
80163;SDS011;70071;55.130;61.268;2023-05-24T01:52:38;19.95;;;13.48;;
80163;SDS011;70071;55.130;61.268;2023-05-24T01:55:31;19.17;;;13.68;;
80163;SDS011;70071;55.130;61.268;2023-05-24T01:58:00;19.98;;;14.85;;
80163;SDS011;70071;55.130;61.268;2023-05-24T02:00:49;18.33;;;13.80;;
80163;SDS011;70071;55.130;61.268;2023-05-24T02:04:34;23.70;;;15.48;;
80163;SDS011;70071;55.130;61.268;2023-05-24T02:07:31;17.08;;;13.02;;
80163;SDS011;70071;55.130;61.268;2023-05-24T02:10:13;23.08;;;13.82;;
80163;SDS011;70071;55.130;61.268;2023-05-24T02:12:40;19.42;;;14.57;;
80163;SDS011;70071;55.130;61.268;2023-05-24T02:15:06;22.67;;;15.52;;
80163;SDS011;70071;55.130;61.268;2023-05-24T02:17:34;27.08;;;14.10;;
80163;SDS011;70071;55.130;61.268;2023-05-24T02:20:01;21.73;;;13.60;;
80163;SDS011;70071;55.130;61.268;2023-05-24T02:22:30;19.13;;;14.25;;
80163;SDS011;70071;55.130;61.268;2023-05-24T02:24:57;24.63;;;14.77;;
80163;SDS011;70071;55.130;61.268;2023-05-24T02:27:23;21.75;;;15.07;;
80163;SDS011;70071;55.130;61.268;2023-05-24T02:29:48;28.75;;;15.90;;
80163;SDS011;70071;55.130;61.268;2023-05-24T02:32:15;23.90;;;16.40;;
80163;SDS011;70071;55.130;61.268;2023-05-24T02:34:41;24.75;;;16.50;;
80163;SDS011;70071;55.130;61.268;2023-05-24T02:37:07;22.17;;;16.13;;
80163;SDS011;70071;55.130;61.268;2023-05-24T02:39:34;21.98;;;16.13;;
80163;SDS011;70071;55.130;61.268;2023-05-24T02:42:00;24.73;;;16.00;;
80163;SDS011;70071;55.130;61.268;2023-05-24T02:44:28;24.35;;;16.95;;
80163;SDS011;70071;55.130;61.268;2023-05-24T02:46:56;28.13;;;15.93;;
80163;SDS011;70071;55.130;61.268;2023-05-24T02:49:24;25.10;;;14.85;;
80163;SDS011;70071;55.130;61.268;2023-05-24T02:52:52;22.35;;;14.85;;
80163;SDS011;70071;55.130;61.268;2023-05-24T03:00:04;24.52;;;14.10;;
80163;SDS011;70071;55.130;61.268;2023-05-24T03:03:50;36.92;;;15.70;;
80163;SDS011;70071;55.130;61.268;2023-05-24T03:06:40;24.35;;;14.65;;
80163;SDS011;70071;55.130;61.268;2023-05-24T03:09:06;24.80;;;14.98;;
80163;SDS011;70071;55.130;61.268;2023-05-24T03:11:33;25.55;;;16.02;;
80163;SDS011;70071;55.130;61.268;2023-05-24T03:14:00;23.75;;;14.88;;
80163;SDS011;70071;55.130;61.268;2023-05-24T03:16:28;23.33;;;14.88;;
80163;SDS011;70071;55.130;61.268;2023-05-24T03:18:55;29.13;;;15.85;;
80163;SDS011;70071;55.130;61.268;2023-05-24T03:21:22;25.52;;;15.68;;
80163;SDS011;70071;55.130;61.268;2023-05-24T03:23:50;20.65;;;15.65;;
80163;SDS011;70071;55.130;61.268;2023-05-24T03:27:01;24.30;;;15.48;;
80163;SDS011;70071;55.130;61.268;2023-05-24T03:30:43;24.63;;;15.27;;
80163;SDS011;70071;55.130;61.268;2023-05-24T03:34:10;21.85;;;14.32;;
80163;SDS011;70071;55.130;61.268;2023-05-24T03:37:36;22.20;;;16.60;;
80163;SDS011;70071;55.130;61.268;2023-05-24T03:41:04;21.35;;;15.10;;
80163;SDS011;70071;55.130;61.268;2023-05-24T03:44:52;23.08;;;15.18;;
80163;SDS011;70071;55.130;61.268;2023-05-24T03:48:18;23.95;;;15.35;;
80163;SDS011;70071;55.130;61.268;2023-05-24T03:51:45;22.20;;;15.32;;
80163;SDS011;70071;55.130;61.268;2023-05-24T03:54:16;23.70;;;14.98;;
80163;SDS011;70071;55.130;61.268;2023-05-24T03:56:54;24.00;;;14.25;;
80163;SDS011;70071;55.130;61.268;2023-05-24T04:00:22;19.40;;;13.70;;
80163;SDS011;70071;55.130;61.268;2023-05-24T04:03:49;19.30;;;13.63;;
80163;SDS011;70071;55.130;61.268;2023-05-24T04:07:36;24.20;;;14.63;;
80163;SDS011;70071;55.130;61.268;2023-05-24T04:11:22;20.80;;;13.65;;
80163;SDS011;70071;55.130;61.268;2023-05-24T04:15:10;24.08;;;15.77;;
80163;SDS011;70071;55.130;61.268;2023-05-24T04:18:35;19.83;;;14.88;;
80163;SDS011;70071;55.130;61.268;2023-05-24T04:22:20;19.00;;;14.32;;
80163;SDS011;70071;55.130;61.268;2023-05-24T04:26:06;19.52;;;14.52;;
80163;SDS011;70071;55.130;61.268;2023-05-24T04:29:38;20.30;;;14.90;;
80163;SDS011;70071;55.130;61.268;2023-05-24T04:33:05;21.40;;;14.73;;
80163;SDS011;70071;55.130;61.268;2023-05-24T04:36:50;24.65;;;15.25;;
80163;SDS011;70071;55.130;61.268;2023-05-24T04:40:38;21.88;;;15.52;;
80163;SDS011;70071;55.130;61.268;2023-05-24T04:44:24;23.05;;;15.10;;
80163;SDS011;70071;55.130;61.268;2023-05-24T04:48:13;21.23;;;14.65;;
80163;SDS011;70071;55.130;61.268;2023-05-24T04:51:40;19.52;;;14.88;;
80163;SDS011;70071;55.130;61.268;2023-05-24T04:55:09;23.00;;;14.68;;
80163;SDS011;70071;55.130;61.268;2023-05-24T07:26:51;33.53;;;23.50;;
80163;SDS011;70071;55.130;61.268;2023-05-24T07:29:59;33.75;;;23.48;;
80163;SDS011;70071;55.130;61.268;2023-05-24T07:32:47;32.60;;;24.08;;
80163;SDS011;70071;55.130;61.268;2023-05-24T07:36:36;34.67;;;25.13;;
80163;SDS011;70071;55.130;61.268;2023-05-24T07:40:24;35.42;;;27.50;;
80163;SDS011;70071;55.130;61.268;2023-05-24T07:43:52;38.70;;;27.08;;
80163;SDS011;70071;55.130;61.268;2023-05-24T07:47:33;34.35;;;26.65;;
80163;SDS011;70071;55.130;61.268;2023-05-24T07:51:19;35.22;;;24.27;;
80163;SDS011;70071;55.130;61.268;2023-05-24T07:54:09;37.25;;;26.92;;
80163;SDS011;70071;55.130;61.268;2023-05-24T07:57:41;41.50;;;28.67;;
80163;SDS011;70071;55.130;61.268;2023-05-24T08:01:28;39.60;;;29.25;;
80163;SDS011;70071;55.130;61.268;2023-05-24T08:05:16;33.60;;;26.38;;
80163;SDS011;70071;55.130;61.268;2023-05-24T08:09:04;37.80;;;27.25;;
80163;SDS011;70071;55.130;61.268;2023-05-24T08:12:33;35.65;;;27.52;;
80163;SDS011;70071;55.130;61.268;2023-05-24T08:16:25;35.75;;;27.83;;
80163;SDS011;70071;55.130;61.268;2023-05-24T08:20:11;40.67;;;28.90;;
80163;SDS011;70071;55.130;61.268;2023-05-24T08:24:02;38.58;;;27.70;;
80163;SDS011;70071;55.130;61.268;2023-05-24T08:28:00;38.28;;;27.85;;
80163;SDS011;70071;55.130;61.268;2023-05-24T08:31:57;40.00;;;27.70;;
80163;SDS011;70071;55.130;61.268;2023-05-24T08:35:45;35.92;;;25.58;;
80163;SDS011;70071;55.130;61.268;2023-05-24T12:51:29;35.60;;;31.77;;
80163;SDS011;70071;55.130;61.268;2023-05-24T12:54:55;36.63;;;29.85;;
80163;SDS011;70071;55.130;61.268;2023-05-24T12:58:21;36.90;;;31.85;;
80163;SDS011;70071;55.130;61.268;2023-05-24T13:01:47;38.25;;;30.08;;
80163;SDS011;70071;55.130;61.268;2023-05-24T13:05:13;34.95;;;30.70;;
80163;SDS011;70071;55.130;61.268;2023-05-24T13:08:41;34.22;;;29.52;;
80163;SDS011;70071;55.130;61.268;2023-05-24T13:12:07;33.35;;;29.80;;
80163;SDS011;70071;55.130;61.268;2023-05-24T13:15:14;33.95;;;29.70;;
80163;SDS011;70071;55.130;61.268;2023-05-24T13:18:40;32.83;;;28.20;;
80163;SDS011;70071;55.130;61.268;2023-05-24T13:24:03;31.10;;;26.17;;
80163;SDS011;70071;55.130;61.268;2023-05-24T13:26:43;32.42;;;28.70;;
80163;SDS011;70071;55.130;61.268;2023-05-24T13:29:49;34.35;;;29.13;;
80163;SDS011;70071;55.130;61.268;2023-05-24T13:32:57;32.15;;;28.60;;
80163;SDS011;70071;55.130;61.268;2023-05-24T13:36:31;33.20;;;26.92;;
80163;SDS011;70071;55.130;61.268;2023-05-24T13:39:37;32.42;;;29.00;;
80163;SDS011;70071;55.130;61.268;2023-05-24T13:42:30;32.42;;;28.92;;
80163;SDS011;70071;55.130;61.268;2023-05-24T13:45:38;31.80;;;28.35;;
80163;SDS011;70071;55.130;61.268;2023-05-24T13:48:10;31.40;;;27.65;;
80163;SDS011;70071;55.130;61.268;2023-05-24T13:50:38;31.52;;;28.20;;
80163;SDS011;70071;55.130;61.268;2023-05-24T13:53:26;32.15;;;28.58;;
80163;SDS011;70071;55.130;61.268;2023-05-24T13:56:31;31.08;;;27.80;;
80163;SDS011;70071;55.130;61.268;2023-05-24T13:59:42;34.85;;;28.23;;
80163;SDS011;70071;55.130;61.268;2023-05-24T14:03:06;31.52;;;28.13;;
80163;SDS011;70071;55.130;61.268;2023-05-24T14:05:54;31.75;;;27.77;;
80163;SDS011;70071;55.130;61.268;2023-05-24T14:09:21;29.38;;;26.33;;
80163;SDS011;70071;55.130;61.268;2023-05-24T14:12:48;30.02;;;26.20;;
80163;SDS011;70071;55.130;61.268;2023-05-24T14:15:57;29.65;;;24.95;;
80163;SDS011;70071;55.130;61.268;2023-05-24T14:18:43;31.52;;;25.33;;
80163;SDS011;70071;55.130;61.268;2023-05-24T14:21:13;30.05;;;25.70;;
80163;SDS011;70071;55.130;61.268;2023-05-24T14:24:20;28.42;;;24.35;;
80163;SDS011;70071;55.130;61.268;2023-05-24T14:27:26;30.73;;;24.42;;
80163;SDS011;70071;55.130;61.268;2023-05-24T14:30:46;27.45;;;24.52;;
80163;SDS011;70071;55.130;61.268;2023-05-24T18:25:09;30.10;;;22.05;;
80163;SDS011;70071;55.130;61.268;2023-05-24T18:28:26;30.75;;;23.33;;
80163;SDS011;70071;55.130;61.268;2023-05-24T18:31:53;35.60;;;23.80;;
80163;SDS011;70071;55.130;61.268;2023-05-24T18:35:27;31.42;;;23.20;;
80163;SDS011;70071;55.130;61.268;2023-05-24T18:38:57;28.50;;;22.98;;
80163;SDS011;70071;55.130;61.268;2023-05-24T18:42:25;28.83;;;22.38;;
80163;SDS011;70071;55.130;61.268;2023-05-24T18:45:54;35.92;;;24.25;;
80163;SDS011;70071;55.130;61.268;2023-05-24T18:49:27;33.17;;;23.58;;
80163;SDS011;70071;55.130;61.268;2023-05-24T18:52:59;36.22;;;23.67;;
80163;SDS011;70071;55.130;61.268;2023-05-24T18:56:09;36.00;;;24.70;;
80163;SDS011;70071;55.130;61.268;2023-05-24T18:59:40;36.50;;;26.63;;
80163;SDS011;70071;55.130;61.268;2023-05-24T19:03:08;43.22;;;28.88;;
80163;SDS011;70071;55.130;61.268;2023-05-24T19:06:55;37.25;;;28.48;;
80163;SDS011;70071;55.130;61.268;2023-05-24T19:10:46;39.17;;;28.48;;
80163;SDS011;70071;55.130;61.268;2023-05-24T19:14:16;35.67;;;26.60;;
80163;SDS011;70071;55.130;61.268;2023-05-24T19:17:43;34.38;;;24.80;;
80163;SDS011;70071;55.130;61.268;2023-05-24T19:21:12;39.33;;;25.45;;
80163;SDS011;70071;55.130;61.268;2023-05-24T19:24:45;42.78;;;28.65;;
80163;SDS011;70071;55.130;61.268;2023-05-24T19:28:12;40.55;;;27.13;;
80163;SDS011;70071;55.130;61.268;2023-05-24T19:31:06;39.78;;;27.90;;
80163;SDS011;70071;55.130;61.268;2023-05-24T19:33:34;39.47;;;27.88;;
80163;SDS011;70071;55.130;61.268;2023-05-24T19:36:02;41.03;;;27.90;;
80163;SDS011;70071;55.130;61.268;2023-05-24T19:38:29;37.22;;;28.90;;
80163;SDS011;70071;55.130;61.268;2023-05-24T19:40:59;32.42;;;26.10;;
80163;SDS011;70071;55.130;61.268;2023-05-24T19:43:26;37.95;;;27.20;;
80163;SDS011;70071;55.130;61.268;2023-05-24T19:47:12;36.65;;;26.90;;
80163;SDS011;70071;55.130;61.268;2023-05-24T19:50:39;34.30;;;25.77;;
80163;SDS011;70071;55.130;61.268;2023-05-24T19:54:11;38.35;;;27.85;;
80163;SDS011;70071;55.130;61.268;2023-05-24T19:57:37;36.60;;;25.98;;
80163;SDS011;70071;55.130;61.268;2023-05-24T20:01:08;34.40;;;25.77;;
80163;SDS011;70071;55.130;61.268;2023-05-24T20:05:00;31.35;;;24.27;;
80163;SDS011;70071;55.130;61.268;2023-05-24T20:08:45;39.30;;;29.05;;
80163;SDS011;70071;55.130;61.268;2023-05-24T20:12:11;39.78;;;29.98;;
80163;SDS011;70071;55.130;61.268;2023-05-24T20:16:01;44.10;;;30.70;;
80163;SDS011;70071;55.130;61.268;2023-05-24T20:19:47;49.83;;;33.25;;
80163;SDS011;70071;55.130;61.268;2023-05-24T20:23:37;33.50;;;24.50;;
80163;SDS011;70071;55.130;61.268;2023-05-24T20:27:24;25.95;;;20.67;;
80163;SDS011;70071;55.130;61.268;2023-05-24T20:31:15;37.13;;;28.02;;
80163;SDS011;70071;55.130;61.268;2023-05-24T20:35:03;33.67;;;25.45;;
80163;SDS011;70071;55.130;61.268;2023-05-24T20:38:48;49.40;;;34.20;;
80163;SDS011;70071;55.130;61.268;2023-05-24T20:42:19;42.97;;;31.17;;
80163;SDS011;70071;55.130;61.268;2023-05-24T20:45:49;35.45;;;24.15;;
80163;SDS011;70071;55.130;61.268;2023-05-24T20:48:28;42.05;;;27.88;;
80163;SDS011;70071;55.130;61.268;2023-05-24T20:51:20;33.08;;;25.13;;
80163;SDS011;70071;55.130;61.268;2023-05-24T20:54:48;33.05;;;23.23;;
80163;SDS011;70071;55.130;61.268;2023-05-24T20:58:34;30.95;;;21.75;;
80163;SDS011;70071;55.130;61.268;2023-05-24T21:01:40;31.50;;;22.90;;
80163;SDS011;70071;55.130;61.268;2023-05-24T21:05:09;28.17;;;21.45;;
80163;SDS011;70071;55.130;61.268;2023-05-24T21:08:37;32.05;;;22.65;;
80163;SDS011;70071;55.130;61.268;2023-05-24T21:12:03;32.88;;;22.73;;
80163;SDS011;70071;55.130;61.268;2023-05-24T21:15:46;25.80;;;18.25;;
80163;SDS011;70071;55.130;61.268;2023-05-24T21:19:19;27.95;;;19.85;;
80163;SDS011;70071;55.130;61.268;2023-05-24T21:22:45;26.65;;;18.35;;
80163;SDS011;70071;55.130;61.268;2023-05-24T21:26:11;25.80;;;17.75;;
80163;SDS011;70071;55.130;61.268;2023-05-24T21:29:38;28.05;;;19.55;;
80163;SDS011;70071;55.130;61.268;2023-05-24T21:33:04;25.83;;;18.05;;
80163;SDS011;70071;55.130;61.268;2023-05-24T21:36:35;22.92;;;18.40;;
80163;SDS011;70071;55.130;61.268;2023-05-24T21:40:22;23.80;;;16.42;;
80163;SDS011;70071;55.130;61.268;2023-05-24T21:43:52;23.20;;;17.40;;
80163;SDS011;70071;55.130;61.268;2023-05-24T21:47:41;29.13;;;21.05;;
80163;SDS011;70071;55.130;61.268;2023-05-24T21:51:28;34.38;;;24.10;;
80163;SDS011;70071;55.130;61.268;2023-05-24T21:54:34;35.75;;;26.02;;
80163;SDS011;70071;55.130;61.268;2023-05-24T21:57:59;34.88;;;24.85;;
80163;SDS011;70071;55.130;61.268;2023-05-24T22:01:28;34.53;;;24.40;;
80163;SDS011;70071;55.130;61.268;2023-05-24T22:04:34;36.88;;;25.38;;
80163;SDS011;70071;55.130;61.268;2023-05-24T22:07:52;37.72;;;25.20;;
80163;SDS011;70071;55.130;61.268;2023-05-24T22:11:20;34.88;;;26.00;;
80163;SDS011;70071;55.130;61.268;2023-05-24T22:14:28;31.33;;;23.02;;
80163;SDS011;70071;55.130;61.268;2023-05-24T22:17:54;31.50;;;22.40;;
80163;SDS011;70071;55.130;61.268;2023-05-24T22:21:20;33.05;;;23.92;;
80163;SDS011;70071;55.130;61.268;2023-05-24T22:24:48;31.92;;;23.73;;
80163;SDS011;70071;55.130;61.268;2023-05-24T22:27:57;36.80;;;25.20;;
80163;SDS011;70071;55.130;61.268;2023-05-24T22:31:23;36.30;;;25.27;;
80163;SDS011;70071;55.130;61.268;2023-05-24T22:34:49;35.17;;;25.02;;
80163;SDS011;70071;55.130;61.268;2023-05-24T22:38:16;34.28;;;24.98;;
80163;SDS011;70071;55.130;61.268;2023-05-24T22:41:42;37.22;;;24.77;;
80163;SDS011;70071;55.130;61.268;2023-05-24T22:45:09;35.50;;;25.67;;
80163;SDS011;70071;55.130;61.268;2023-05-24T22:48:54;37.10;;;25.38;;
80163;SDS011;70071;55.130;61.268;2023-05-24T22:52:40;33.70;;;25.50;;
80163;SDS011;70071;55.130;61.268;2023-05-24T22:56:11;40.03;;;26.08;;
80163;SDS011;70071;55.130;61.268;2023-05-24T22:59:53;36.22;;;26.00;;
80163;SDS011;70071;55.130;61.268;2023-05-24T23:03:27;37.28;;;25.67;;
80163;SDS011;70071;55.130;61.268;2023-05-24T23:05:53;35.40;;;24.98;;
80163;SDS011;70071;55.130;61.268;2023-05-24T23:08:19;38.50;;;24.95;;
80163;SDS011;70071;55.130;61.268;2023-05-24T23:13:12;36.30;;;25.88;;
80163;SDS011;70071;55.130;61.268;2023-05-24T23:15:43;34.33;;;25.48;;
80163;SDS011;70071;55.130;61.268;2023-05-24T23:18:11;37.80;;;26.13;;
80163;SDS011;70071;55.130;61.268;2023-05-24T23:20:41;37.20;;;26.45;;
80163;SDS011;70071;55.130;61.268;2023-05-24T23:23:07;35.55;;;25.65;;
80163;SDS011;70071;55.130;61.268;2023-05-24T23:25:33;35.28;;;25.88;;
80163;SDS011;70071;55.130;61.268;2023-05-24T23:27:59;33.95;;;25.98;;
80163;SDS011;70071;55.130;61.268;2023-05-24T23:30:26;37.78;;;27.35;;
80163;SDS011;70071;55.130;61.268;2023-05-24T23:32:52;38.65;;;26.75;;
80163;SDS011;70071;55.130;61.268;2023-05-24T23:35:18;39.60;;;27.05;;
80163;SDS011;70071;55.130;61.268;2023-05-24T23:37:44;36.30;;;27.20;;
80163;SDS011;70071;55.130;61.268;2023-05-24T23:40:10;38.08;;;26.95;;
80163;SDS011;70071;55.130;61.268;2023-05-24T23:42:37;37.75;;;26.10;;
80163;SDS011;70071;55.130;61.268;2023-05-24T23:45:03;31.60;;;21.77;;
80163;SDS011;70071;55.130;61.268;2023-05-24T23:47:32;31.83;;;23.00;;
80163;SDS011;70071;55.130;61.268;2023-05-24T23:52:23;35.63;;;25.42;;
80163;SDS011;70071;55.130;61.268;2023-05-24T23:57:15;36.05;;;24.63;;
80163;SDS011;70071;55.130;61.268;2023-05-24T23:59:41;37.38;;;25.40;;
